Time;durP1;ratioP1;P1;durP2;ratioP2;P2;SDS_P1;SDS_P2;PMS_P1;PMS_P2;Temp;Humidity;BMP_temperature;BMP_pressure;BME280_temperature;BME280_humidity;BME280_pressure;Samples;Min_cycle;Max_cycle;Signal;HPM_P1;HPM_P2
2021/05/01 03:02:59;;;;;;;18.90;17.00;;;9.90;99.90;;;;;;5186843;22;89212;-85
2021/05/01 03:05:25;;;;;;;19.20;17.27;;;9.90;99.90;;;;;;4929307;28;86499;-85
2021/05/01 03:07:52;;;;;;;19.52;17.65;;;;;;;;;;4929746;28;86761;-87
2021/05/01 03:10:23;;;;;;;18.98;17.17;;;9.90;99.90;;;;;;4939009;28;87235;-85
2021/05/01 03:12:49;;;;;;;19.45;17.55;;;9.80;99.90;;;;;;4936856;28;87406;-85
2021/05/01 03:15:16;;;;;;;22.42;20.33;;;9.80;99.90;;;;;;4931415;28;86613;-84
2021/05/01 03:17:43;;;;;;;23.10;21.02;;;9.70;99.90;;;;;;4929776;28;87066;-87
2021/05/01 03:20:10;;;;;;;22.05;19.95;;;9.80;99.90;;;;;;4933556;28;87663;-86
2021/05/01 03:22:36;;;;;;;24.17;22.00;;;;;;;;;;4958660;28;87950;-87
2021/05/01 03:25:04;;;;;;;21.55;19.60;;;9.90;99.90;;;;;;4948222;28;86203;-91
2021/05/01 03:27:31;;;;;;;20.48;18.58;;;;;;;;;;4946345;28;86276;-90
2021/05/01 03:29:56;;;;;;;19.65;17.65;;;9.90;99.90;;;;;;4936884;28;87764;-90
2021/05/01 03:32:22;;;;;;;20.30;18.25;;;9.80;99.90;;;;;;4939316;28;87920;-89
2021/05/01 03:34:48;;;;;;;17.60;15.82;;;;;;;;;;4942262;28;86229;-88
2021/05/01 03:37:14;;;;;;;17.67;15.80;;;9.90;99.90;;;;;;4928777;28;85506;-90
2021/05/01 03:39:40;;;;;;;20.90;19.02;;;9.90;99.90;;;;;;4938503;28;87136;-90
2021/05/01 03:42:06;;;;;;;19.48;17.67;;;9.90;99.90;;;;;;4933888;28;87484;-90
2021/05/01 03:44:32;;;;;;;18.55;16.75;;;;;;;;;;4933633;28;87869;-88
2021/05/01 03:46:58;;;;;;;17.98;16.13;;;;;;;;;;4916365;28;86777;-89
2021/05/01 03:53:13;;;;;;;17.13;15.40;;;9.80;99.90;;;;;;4943304;28;86859;-88
2021/05/01 03:55:39;;;;;;;19.90;17.95;;;;;;;;;;4931780;28;86374;-87
2021/05/01 03:58:05;;;;;;;21.10;19.00;;;9.90;99.90;;;;;;4967305;28;86183;-87
2021/05/01 04:00:31;;;;;;;22.02;20.02;;;9.90;99.90;;;;;;4948726;28;87707;-87
2021/05/01 04:02:56;;;;;;;20.85;19.05;;;9.90;99.90;;;;;;4938209;28;90221;-91
2021/05/01 04:05:23;;;;;;;21.85;19.95;;;;;;;;;;4948492;28;86149;-89
2021/05/01 04:07:49;;;;;;;21.50;19.38;;;;;;;;;;4959774;28;87041;-87
2021/05/01 04:10:15;;;;;;;22.10;20.02;;;;;;;;;;4983007;28;88099;-91
2021/05/01 04:12:42;;;;;;;19.52;17.52;;;;;;;;;;4929751;28;91561;-86
2021/05/01 04:15:08;;;;;;;20.25;18.25;;;10.00;99.90;;;;;;4926276;28;86470;-86
2021/05/01 04:17:34;;;;;;;20.70;18.70;;;;;;;;;;4972382;28;86755;-86
2021/05/01 04:20:00;;;;;;;21.00;18.73;;;;;;;;;;4987864;28;87245;-87
2021/05/01 04:22:26;;;;;;;21.83;19.63;;;9.90;99.90;;;;;;4970591;28;89400;-86
2021/05/01 04:24:52;;;;;;;22.33;20.05;;;9.90;99.90;;;;;;4987823;28;86051;-90
2021/05/01 04:27:19;;;;;;;23.65;21.20;;;9.90;99.90;;;;;;4977185;28;85410;-88
2021/05/01 04:29:44;;;;;;;20.67;18.67;;;9.90;99.90;;;;;;4967805;28;87230;-85
2021/05/01 04:32:10;;;;;;;20.80;18.70;;;9.80;99.90;;;;;;4965823;28;87176;-87
2021/05/01 04:34:37;;;;;;;19.15;17.10;;;9.80;99.90;;;;;;4967197;28;86942;-87
2021/05/01 04:37:03;;;;;;;21.50;19.30;;;;;;;;;;4968475;28;86047;-86
2021/05/01 04:39:29;;;;;;;22.65;18.02;;;;;;;;;;4951901;28;90490;-86
2021/05/01 04:41:55;;;;;;;20.52;18.35;;;9.90;99.90;;;;;;4985076;28;87378;-84
2021/05/01 04:44:21;;;;;;;23.20;21.10;;;9.80;99.90;;;;;;4957387;28;86671;-92
2021/05/01 04:46:52;;;;;;;22.88;20.67;;;10.00;99.90;;;;;;4958877;28;86892;-89
2021/05/01 04:49:18;;;;;;;22.42;19.73;;;10.00;99.90;;;;;;4949530;28;88278;-91
2021/05/01 04:51:50;;;;;;;20.75;17.45;;;10.00;99.90;;;;;;4967293;28;86284;-85
2021/05/01 04:54:16;;;;;;;21.38;17.15;;;10.00;99.90;;;;;;4976298;28;87652;-94
2021/05/01 04:56:47;;;;;;;21.25;16.77;;;10.00;99.90;;;;;;4973406;28;86735;-92
2021/05/01 04:59:13;;;;;;;21.85;16.85;;;10.00;99.90;;;;;;4965777;28;88358;-91
2021/05/01 05:01:38;;;;;;;24.52;20.10;;;10.50;99.90;;;;;;4951504;28;89569;-85
2021/05/01 05:04:04;;;;;;;21.08;17.17;;;10.10;99.90;;;;;;4978625;28;86408;-92
2021/05/01 05:06:30;;;;;;;23.13;20.42;;;;;;;;;;4977327;28;86692;-94
2021/05/01 05:08:59;;;;;;;23.00;20.67;;;10.10;99.90;;;;;;4965622;28;91009;-92
2021/05/01 05:11:25;;;;;;;25.50;22.77;;;;;;;;;;4982693;28;87272;-93
2021/05/01 05:13:51;;;;;;;25.02;20.10;;;10.20;99.90;;;;;;4980019;28;86574;-92
2021/05/01 05:16:17;;;;;;;24.42;19.77;;;10.20;99.90;;;;;;4980815;28;85541;-93
2021/05/01 05:18:42;;;;;;;26.25;22.75;;;10.20;99.90;;;;;;4977687;28;87366;-89
2021/05/01 05:21:08;;;;;;;26.35;22.65;;;10.20;99.90;;;;;;4981844;28;86912;-92
2021/05/01 05:23:34;;;;;;;25.98;22.52;;;10.20;99.90;;;;;;4978818;28;87828;-92
2021/05/01 05:25:59;;;;;;;25.83;22.58;;;10.20;99.90;;;;;;4978633;28;86764;-93
2021/05/01 05:28:25;;;;;;;27.30;22.15;;;10.20;99.90;;;;;;4962536;28;88645;-90
2021/05/01 05:30:52;;;;;;;33.78;25.92;;;10.60;99.90;;;;;;4975971;28;87310;-88
2021/05/01 05:33:17;;;;;;;35.63;26.08;;;10.30;99.90;;;;;;4974693;28;87283;-84
2021/05/01 05:35:43;;;;;;;32.17;26.60;;;10.30;99.90;;;;;;4967806;28;86604;-85
2021/05/01 05:38:09;;;;;;;32.78;25.60;;;10.30;99.90;;;;;;4953729;28;87569;-82
2021/05/01 05:40:35;;;;;;;35.67;24.50;;;10.30;99.90;;;;;;4959978;28;87374;-83
2021/05/01 05:43:01;;;;;;;29.17;22.70;;;10.40;99.90;;;;;;4948234;28;87114;-83
2021/05/01 05:45:31;;;;;;;27.73;23.92;;;;;;;;;;4957870;28;86835;-86
2021/05/01 05:47:59;;;;;;;31.93;23.40;;;10.50;99.90;;;;;;4943119;28;91623;-85
2021/05/01 05:50:25;;;;;;;34.63;25.58;;;10.50;99.90;;;;;;4985790;28;87960;-84
2021/05/01 05:52:51;;;;;;;27.60;21.70;;;10.60;99.90;;;;;;4953723;28;86968;-84
2021/05/01 05:55:17;;;;;;;30.73;23.73;;;10.70;99.90;;;;;;4968993;28;87048;-86
2021/05/01 05:57:51;;;;;;;29.05;23.38;;;10.60;99.90;;;;;;4965791;28;87098;-84
2021/05/01 06:00:18;;;;;;;33.15;29.60;;;10.70;99.90;;;;;;4939536;28;88564;-85
2021/05/01 06:02:44;;;;;;;31.15;27.85;;;10.60;99.90;;;;;;4926873;28;86989;-85
2021/05/01 06:05:18;;;;;;;30.45;27.20;;;10.60;99.90;;;;;;4928538;28;86098;-83
2021/05/01 06:07:48;;;;;;;32.65;26.05;;;10.60;99.90;;;;;;4900603;28;88905;-84
2021/05/01 06:10:14;;;;;;;29.20;24.50;;;10.70;99.90;;;;;;4917488;28;87236;-83
2021/05/01 06:12:41;;;;;;;25.02;18.35;;;10.80;99.90;;;;;;4924931;28;87533;-84
2021/05/01 06:15:13;;;;;;;24.30;18.75;;;10.80;99.90;;;;;;4914023;28;87003;-84
2021/05/01 06:17:48;;;;;;;25.25;19.88;;;10.90;99.90;;;;;;4921054;28;88135;-86
2021/05/01 06:20:14;;;;;;;27.27;23.23;;;11.10;99.90;;;;;;4934395;28;86977;-86
2021/05/01 06:22:41;;;;;;;24.10;21.60;;;11.40;99.90;;;;;;4927452;28;87492;-85
2021/05/01 06:25:09;;;;;;;25.30;20.38;;;11.40;99.90;;;;;;4908637;28;87016;-85
2021/05/01 06:27:35;;;;;;;23.98;19.17;;;;;;;;;;4924905;28;86919;-85
2021/05/01 06:30:04;;;;;;;23.90;21.27;;;11.60;99.90;;;;;;4916536;28;88014;-86
2021/05/01 06:32:30;;;;;;;30.45;27.23;;;11.70;99.90;;;;;;4907569;28;87086;-86
2021/05/01 06:34:57;;;;;;;27.20;24.50;;;11.70;99.90;;;;;;4923994;28;86247;-83
2021/05/01 06:37:25;;;;;;;30.85;27.98;;;11.70;99.90;;;;;;4910109;28;88382;-85
2021/05/01 06:39:53;;;;;;;29.83;26.90;;;11.80;99.90;;;;;;4915894;28;91767;-84
2021/05/01 06:42:25;;;;;;;35.88;32.63;;;11.80;99.90;;;;;;4907443;28;86968;-84
2021/05/01 06:45:13;;;;;;;41.80;38.40;;;12.50;99.90;;;;;;4888718;28;86527;-84
2021/05/01 06:47:58;;;;;;;42.88;39.65;;;11.60;99.90;;;;;;4905890;28;87502;-85
2021/05/01 06:50:26;;;;;;;36.70;33.58;;;12.10;99.90;;;;;;4909412;28;86548;-86
2021/05/01 06:52:53;;;;;;;26.05;23.30;;;12.10;99.90;;;;;;4915245;28;86976;-86
2021/05/01 06:55:21;;;;;;;26.88;24.08;;;12.30;99.90;;;;;;4913224;28;86236;-86
2021/05/01 06:57:51;;;;;;;24.33;21.83;;;12.80;99.90;;;;;;4922127;28;86947;-85
2021/05/01 07:00:19;;;;;;;23.17;20.60;;;12.40;99.90;;;;;;4906879;28;90248;-85
2021/05/01 07:02:47;;;;;;;22.02;19.63;;;12.60;99.90;;;;;;4925118;28;87924;-85
2021/05/01 07:05:20;;;;;;;27.23;24.58;;;12.80;99.90;;;;;;4926385;28;86851;-86
2021/05/01 07:07:47;;;;;;;25.27;22.30;;;12.60;99.90;;;;;;4940051;28;87212;-84
2021/05/01 07:10:14;;;;;;;25.52;23.00;;;12.70;99.90;;;;;;4933606;28;87121;-85
2021/05/01 07:12:40;;;;;;;29.27;26.42;;;12.60;99.90;;;;;;4942748;28;86908;-84
2021/05/01 07:15:12;;;;;;;29.65;26.85;;;12.60;99.90;;;;;;4943973;28;87007;-82
2021/05/01 07:17:39;;;;;;;25.17;21.02;;;12.50;99.90;;;;;;4938422;28;88471;-81
2021/05/01 07:20:08;;;;;;;26.45;21.10;;;12.50;99.90;;;;;;4924241;28;89217;-85
2021/05/01 07:22:35;;;;;;;23.00;20.65;;;12.50;99.90;;;;;;4939478;28;86674;-85
2021/05/01 07:25:08;;;;;;;24.83;21.33;;;12.60;99.90;;;;;;4932196;28;87152;-87
2021/05/01 07:27:57;;;;;;;22.95;20.05;;;12.60;99.90;;;;;;4943048;28;89222;-85
2021/05/01 07:30:25;;;;;;;25.55;22.90;;;12.80;99.90;;;;;;4940050;28;88487;-85
2021/05/01 07:32:55;;;;;;;27.35;24.75;;;12.80;99.90;;;;;;4945840;28;86916;-86
2021/05/01 07:35:24;;;;;;;44.60;41.07;;;12.90;99.90;;;;;;4929212;28;86689;-85
2021/05/01 07:37:53;;;;;;;64.75;60.38;;;12.90;99.90;;;;;;4923917;28;87178;-85
2021/05/01 07:40:30;;;;;;;66.55;62.08;;;12.70;99.90;;;;;;4928368;28;88027;-83
2021/05/01 07:42:58;;;;;;;63.22;59.10;;;12.70;99.90;;;;;;4924502;28;86895;-83
2021/05/01 07:45:25;;;;;;;49.10;45.38;;;12.80;99.90;;;;;;4939458;28;86440;-85
2021/05/01 07:47:56;;;;;;;47.85;44.35;;;12.90;99.90;;;;;;4945095;28;87549;-85
2021/05/01 07:50:24;;;;;;;37.90;34.72;;;13.00;99.90;;;;;;4954700;28;87300;-83
2021/05/01 07:52:55;;;;;;;38.72;35.55;;;13.00;99.90;;;;;;4940857;28;88109;-85
2021/05/01 07:55:22;;;;;;;32.33;29.50;;;13.10;99.90;;;;;;4937758;28;86623;-85
2021/05/01 07:57:48;;;;;;;27.83;25.13;;;13.20;99.90;;;;;;4923605;28;90688;-85
2021/05/01 08:00:16;;;;;;;25.75;23.08;;;13.30;99.90;;;;;;4936036;28;88327;-88
2021/05/01 08:02:42;;;;;;;27.90;25.10;;;13.20;99.90;;;;;;4955481;28;86950;-84
2021/05/01 08:05:10;;;;;;;23.55;19.77;;;13.10;99.90;;;;;;4939978;28;86925;-84
2021/05/01 08:07:36;;;;;;;23.95;21.38;;;12.90;99.90;;;;;;4919532;28;90343;-85
2021/05/01 08:10:03;;;;;;;25.90;21.60;;;12.60;99.90;;;;;;4952402;28;87881;-85
2021/05/01 08:12:29;;;;;;;25.17;20.52;;;12.70;99.90;;;;;;4942364;28;86995;-85
2021/05/01 08:14:55;;;;;;;28.27;22.80;;;12.60;99.90;;;;;;4951362;28;87154;-85
2021/05/01 08:17:21;;;;;;;27.65;21.67;;;12.60;99.90;;;;;;4926286;28;89332;-84
2021/05/01 08:19:46;;;;;;;26.58;22.38;;;11.80;99.90;;;;;;4942279;28;88346;-85
2021/05/01 08:22:12;;;;;;;28.98;23.33;;;12.30;99.90;;;;;;4941516;28;87038;-86
2021/05/01 08:25:07;;;;;;;27.52;23.27;;;12.30;99.90;;;;;;4954811;28;86413;-85
2021/05/01 08:27:33;;;;;;;28.20;23.85;;;12.40;99.90;;;;;;4944315;28;87288;-86
2021/05/01 08:30:01;;;;;;;27.20;22.92;;;12.30;99.90;;;;;;4947427;28;88336;-84
2021/05/01 08:32:26;;;;;;;27.63;22.52;;;12.30;99.90;;;;;;4933005;28;86647;-87
2021/05/01 08:34:53;;;;;;;29.38;23.83;;;12.40;99.90;;;;;;4947397;28;86289;-83
2021/05/01 08:37:20;;;;;;;30.98;26.33;;;12.30;99.90;;;;;;4939384;28;87704;-87
2021/05/01 08:39:58;;;;;;;28.55;24.30;;;12.20;99.90;;;;;;4957646;28;87657;-85
2021/05/01 08:42:29;;;;;;;29.88;24.52;;;11.50;99.90;;;;;;4948171;28;87782;-84
2021/05/01 08:45:04;;;;;;;29.65;24.55;;;12.10;99.90;;;;;;4951491;28;86850;-83
2021/05/01 08:47:34;;;;;;;30.05;25.45;;;11.90;99.90;;;;;;4915547;28;91143;-84
2021/05/01 08:50:05;;;;;;;30.90;25.17;;;12.20;99.90;;;;;;4943666;28;89898;-84
2021/05/01 08:52:31;;;;;;;34.38;30.88;;;;;;;;;;4933783;28;86100;-83
2021/05/01 08:54:59;;;;;;;30.40;26.67;;;12.30;99.90;;;;;;4950070;28;86307;-88
2021/05/01 08:57:30;;;;;;;36.67;32.92;;;12.00;99.90;;;;;;4966770;28;86582;-88
2021/05/01 08:59:56;;;;;;;36.83;33.25;;;12.00;99.90;;;;;;4939920;28;87021;-86
2021/05/01 09:02:25;;;;;;;30.90;27.63;;;12.00;99.90;;;;;;4975152;28;87068;-84
2021/05/01 09:04:53;;;;;;;29.88;26.60;;;12.00;99.90;;;;;;4962020;28;86639;-86
2021/05/01 09:07:21;;;;;;;31.27;26.77;;;12.00;99.90;;;;;;4955019;28;87478;-91
2021/05/01 09:09:58;;;;;;;32.35;27.33;;;11.80;99.90;;;;;;4948970;28;88100;-88
2021/05/01 09:12:45;;;;;;;32.17;26.42;;;11.70;99.90;;;;;;4943439;28;86735;-88
2021/05/01 09:15:12;;;;;;;29.77;26.08;;;11.80;99.90;;;;;;4950861;28;86927;-88
2021/05/01 09:17:41;;;;;;;36.60;32.72;;;11.60;99.90;;;;;;4936204;28;87130;-86
2021/05/01 09:20:12;;;;;;;34.13;30.45;;;11.20;99.90;;;;;;4945353;28;87176;-88
2021/05/01 09:23:00;;;;;;;38.60;34.72;;;11.50;99.90;;;;;;4945740;28;86739;-85
2021/05/01 09:25:31;;;;;;;38.47;34.78;;;11.50;99.90;;;;;;4947678;28;86108;-86
2021/05/01 09:28:14;;;;;;;51.17;46.78;;;11.50;99.90;;;;;;4943167;28;87903;-84
2021/05/01 09:30:42;;;;;;;45.78;41.80;;;11.40;99.90;;;;;;4946539;28;86992;-85
2021/05/01 09:33:28;;;;;;;47.58;43.47;;;11.40;99.90;;;;;;4944474;28;87768;-84
2021/05/01 09:35:58;;;;;;;41.40;37.35;;;11.50;99.90;;;;;;4940424;28;86988;-84
2021/05/01 09:38:24;;;;;;;44.25;40.17;;;11.50;99.90;;;;;;4934778;28;87718;-85
2021/05/01 09:40:50;;;;;;;40.95;36.90;;;11.60;99.90;;;;;;4937264;28;86785;-83
2021/05/01 09:43:17;;;;;;;41.13;37.22;;;11.60;99.90;;;;;;4928577;28;86732;-83
2021/05/01 09:45:43;;;;;;;39.70;35.72;;;11.70;99.90;;;;;;4934053;28;86115;-84
2021/05/01 09:48:17;;;;;;;43.58;39.30;;;11.70;99.90;;;;;;4959466;28;87882;-85
2021/05/01 09:50:44;;;;;;;40.58;36.60;;;11.60;99.90;;;;;;4926870;28;87880;-82
2021/05/01 09:53:14;;;;;;;36.83;33.30;;;11.40;99.90;;;;;;4909103;28;86845;-86
2021/05/01 09:55:47;;;;;;;37.42;33.88;;;11.40;99.90;;;;;;4926645;28;86695;-84
2021/05/01 09:58:25;;;;;;;32.75;28.25;;;12.00;99.90;;;;;;4937623;28;89058;-84
2021/05/01 10:00:53;;;;;;;33.95;30.20;;;11.30;99.90;;;;;;4935659;28;87843;-85
2021/05/01 10:03:26;;;;;;;36.67;33.17;;;11.30;99.90;;;;;;4926396;28;87112;-84
2021/05/01 10:05:54;;;;;;;33.55;30.15;;;11.10;99.90;;;;;;4938717;28;86891;-83
2021/05/01 10:08:22;;;;;;;36.85;33.00;;;11.40;99.90;;;;;;4963852;28;87358;-83
2021/05/01 10:10:49;;;;;;;33.00;28.13;;;11.30;99.90;;;;;;4954193;28;87518;-83
2021/05/01 10:13:15;;;;;;;32.00;26.85;;;;;;;;;;4951412;28;87073;-84
2021/05/01 10:15:43;;;;;;;34.95;31.38;;;11.40;99.90;;;;;;4945554;28;86806;-82
2021/05/01 10:18:17;;;;;;;35.58;31.98;;;11.30;99.90;;;;;;4965119;28;88172;-84
2021/05/01 10:20:49;;;;;;;36.60;32.90;;;11.30;99.90;;;;;;4962120;28;87182;-82
2021/05/01 10:23:18;;;;;;;34.72;31.20;;;11.30;99.90;;;;;;4944473;28;87416;-85
2021/05/01 10:25:46;;;;;;;34.05;30.83;;;11.40;99.90;;;;;;4984137;28;86932;-83
2021/05/01 10:28:18;;;;;;;32.75;29.27;;;11.40;99.90;;;;;;4957872;28;87026;-83
2021/05/01 10:30:48;;;;;;;33.70;30.30;;;11.30;99.90;;;;;;4957952;28;87009;-82
2021/05/01 10:35:53;;;;;;;40.00;36.25;;;11.50;99.90;;;;;;4964634;28;86823;-83
2021/05/01 10:38:20;;;;;;;33.33;29.98;;;11.40;99.90;;;;;;4957162;28;87575;-84
2021/05/01 10:40:52;;;;;;;31.77;28.55;;;11.50;99.90;;;;;;4959014;28;87126;-83
2021/05/01 10:43:35;;;;;;;30.08;26.20;;;11.50;99.90;;;;;;4949142;28;86994;-83
2021/05/01 10:46:06;;;;;;;29.10;24.40;;;11.50;99.90;;;;;;4972441;28;86724;-84
2021/05/01 10:48:35;;;;;;;30.40;25.25;;;11.40;99.90;;;;;;4956421;28;88190;-84
2021/05/01 10:51:09;;;;;;;31.45;26.35;;;11.30;99.90;;;;;;4970565;28;87813;-83
2021/05/01 10:53:36;;;;;;;28.85;23.35;;;11.40;99.90;;;;;;4962798;28;86765;-83
2021/05/01 10:56:04;;;;;;;29.20;23.80;;;10.80;99.90;;;;;;4947114;28;86889;-84
2021/05/01 10:58:46;;;;;;;30.58;23.40;;;11.60;99.90;;;;;;4944558;28;88659;-83
2021/05/01 11:01:36;;;;;;;29.98;25.05;;;11.30;99.90;;;;;;4942818;28;88845;-83
2021/05/01 11:04:06;;;;;;;28.20;24.65;;;12.10;99.90;;;;;;4912893;28;87061;-83
2021/05/01 11:06:47;;;;;;;27.17;24.25;;;11.30;99.90;;;;;;4934386;28;86324;-82
2021/05/01 11:09:38;;;;;;;32.30;28.38;;;11.20;99.90;;;;;;4913639;28;87643;-82
2021/05/01 11:12:08;;;;;;;33.00;26.60;;;11.20;99.90;;;;;;4907016;28;87326;-82
2021/05/01 11:14:46;;;;;;;29.38;24.00;;;11.10;99.90;;;;;;4911823;28;87874;-83
2021/05/01 11:17:21;;;;;;;31.45;23.55;;;11.10;99.90;;;;;;4916732;28;86921;-83
2021/05/01 11:19:47;;;;;;;29.73;24.40;;;11.10;99.90;;;;;;4914698;28;86779;-85
2021/05/01 11:22:20;;;;;;;33.47;24.48;;;11.20;99.90;;;;;;4960057;22;89535;-82
2021/05/01 11:24:46;;;;;;;30.80;24.67;;;;;;;;;;4921966;28;87137;-88
2021/05/01 11:27:18;;;;;;;32.75;27.85;;;11.20;99.90;;;;;;4917754;28;87165;-84
2021/05/01 11:29:44;;;;;;;33.83;28.55;;;;;;;;;;4939790;28;89092;-83
2021/05/01 11:32:10;;;;;;;33.65;26.52;;;11.40;99.90;;;;;;4926497;28;86906;-84
2021/05/01 11:34:35;;;;;;;29.23;25.67;;;11.40;99.90;;;;;;4919083;28;87005;-81
2021/05/01 11:37:06;;;;;;;34.10;30.45;;;11.50;99.90;;;;;;4925408;28;87000;-81
2021/05/01 11:39:38;;;;;;;32.75;27.73;;;11.60;99.90;;;;;;4920298;28;88629;-83
2021/05/01 11:42:11;;;;;;;32.13;26.88;;;11.90;99.90;;;;;;4933133;28;89112;-84
2021/05/01 11:44:37;;;;;;;29.83;25.80;;;;;;;;;;4930922;28;88287;-81
2021/05/01 11:47:16;;;;;;;29.98;25.88;;;12.10;99.90;;;;;;4936312;28;86379;-85
2021/05/01 11:49:54;;;;;;;32.50;27.55;;;11.40;99.90;;;;;;4934972;28;86810;-83
2021/05/01 11:52:48;;;;;;;30.50;25.83;;;11.40;99.90;;;;;;4925576;28;88493;-85
2021/05/01 11:55:36;;;;;;;32.30;25.15;;;11.20;99.90;;;;;;4927240;28;87130;-82
2021/05/01 11:58:03;;;;;;;32.45;25.08;;;11.80;99.90;;;;;;4924954;28;86177;-82
2021/05/01 12:00:37;;;;;;;32.75;28.27;;;11.80;99.90;;;;;;4922934;28;87728;-84
2021/05/01 12:03:27;;;;;;;31.63;26.45;;;11.60;99.90;;;;;;4936397;28;87964;-85
2021/05/01 12:05:58;;;;;;;31.20;24.63;;;11.80;99.90;;;;;;4929544;28;87960;-86
2021/05/01 12:08:25;;;;;;;33.00;25.17;;;11.80;99.90;;;;;;4923992;28;86820;-84
2021/05/01 12:10:54;;;;;;;30.38;26.08;;;11.90;99.90;;;;;;4925219;28;87336;-85
2021/05/01 12:13:27;;;;;;;31.45;25.45;;;11.80;99.90;;;;;;4928465;28;87499;-85
2021/05/01 12:15:56;;;;;;;32.47;27.00;;;11.70;99.90;;;;;;4930235;28;87057;-80
2021/05/01 12:18:22;;;;;;;31.08;26.75;;;11.00;99.90;;;;;;4926810;28;86858;-82
2021/05/01 12:20:55;;;;;;;34.15;26.65;;;11.60;99.90;;;;;;4927365;28;87199;-83
2021/05/01 12:23:45;;;;;;;31.55;25.40;;;11.40;99.90;;;;;;4910016;28;87454;-86
2021/05/01 12:26:36;;;;;;;32.17;27.52;;;11.60;99.90;;;;;;4931638;28;86990;-83
2021/05/01 12:29:23;;;;;;;32.05;25.55;;;11.20;99.90;;;;;;4930906;28;87023;-82
2021/05/01 12:31:50;;;;;;;29.23;24.23;;;11.40;99.90;;;;;;4928210;28;87862;-85
2021/05/01 12:34:16;;;;;;;32.05;24.42;;;;;;;;;;4928373;28;88335;-83
2021/05/01 12:36:45;;;;;;;30.48;23.80;;;11.30;99.90;;;;;;4927704;28;86934;-84
2021/05/01 12:39:11;;;;;;;31.35;24.70;;;11.00;99.90;;;;;;4925102;28;87011;-85
2021/05/01 12:41:39;;;;;;;37.97;27.80;;;11.20;99.90;;;;;;4929205;28;87009;-86
2021/05/01 12:44:06;;;;;;;31.30;27.98;;;11.20;99.90;;;;;;4932308;28;87233;-83
2021/05/01 12:46:32;;;;;;;28.27;23.90;;;;;;;;;;4938757;28;86724;-82
2021/05/01 12:49:00;;;;;;;31.40;23.73;;;11.20;99.90;;;;;;4930229;28;86330;-83
2021/05/01 12:51:27;;;;;;;33.83;23.67;;;11.20;99.90;;;;;;4929649;28;87068;-84
2021/05/01 12:53:58;;;;;;;35.10;26.33;;;11.20;99.90;;;;;;4929373;28;87064;-84
2021/05/01 12:56:33;;;;;;;36.00;31.48;;;10.40;99.90;;;;;;4911001;28;87901;-83
2021/05/01 12:59:20;;;;;;;36.15;29.92;;;11.20;99.90;;;;;;4932009;28;87079;-83
2021/05/01 13:01:55;;;;;;;38.28;26.10;;;11.20;99.90;;;;;;4918889;28;87728;-81
2021/05/01 13:04:28;;;;;;;35.80;26.88;;;11.20;99.90;;;;;;4920801;28;87326;-83
2021/05/01 13:06:54;;;;;;;36.03;25.90;;;;;;;;;;4936076;28;86666;-84
2021/05/01 13:09:21;;;;;;;38.00;25.98;;;11.20;99.90;;;;;;4925655;28;87081;-82
2021/05/01 13:12:11;;;;;;;36.38;26.27;;;11.10;99.90;;;;;;4935782;28;88732;-84
2021/05/01 13:14:57;;;;;;;34.80;22.77;;;11.30;99.90;;;;;;4923899;28;87707;-84
2021/05/01 13:17:36;;;;;;;32.95;24.05;;;11.10;99.90;;;;;;4935236;28;86906;-83
2021/05/01 13:20:07;;;;;;;32.97;24.92;;;10.80;99.90;;;;;;4925711;28;87145;-84
2021/05/01 13:22:34;;;;;;;33.30;22.88;;;10.90;99.90;;;;;;4924981;28;89072;-87
2021/05/01 13:25:06;;;;;;;37.88;25.02;;;11.20;99.90;;;;;;4925860;28;87420;-85
2021/05/01 13:27:33;;;;;;;34.80;26.13;;;11.10;99.90;;;;;;4930825;28;87433;-83
2021/05/01 13:30:13;;;;;;;37.13;27.55;;;11.50;99.90;;;;;;4927284;28;87347;-86
2021/05/01 13:32:39;;;;;;;35.45;28.38;;;;;;;;;;4922392;28;87164;-82
2021/05/01 13:35:07;;;;;;;41.88;28.23;;;11.40;99.90;;;;;;4929482;28;86983;-82
2021/05/01 13:37:36;;;;;;;37.85;25.20;;;;;;;;;;4924045;28;87307;-84
2021/05/01 13:40:02;;;;;;;38.75;26.13;;;;;;;;;;4930798;28;86207;-82
2021/05/01 13:42:31;;;;;;;39.92;26.13;;;;;;;;;;4925515;28;87506;-85
2021/05/01 13:45:02;;;;;;;38.15;24.27;;;10.70;99.90;;;;;;4922377;28;88421;-85
2021/05/01 13:47:28;;;;;;;39.45;25.88;;;10.80;99.90;;;;;;4923342;28;88467;-84
2021/05/01 13:50:01;;;;;;;43.85;27.88;;;12.20;99.90;;;;;;4923815;28;87242;-84
2021/05/01 13:52:33;;;;;;;40.10;29.90;;;11.40;99.90;;;;;;4929009;28;88099;-82
2021/05/01 13:55:27;;;;;;;43.13;32.67;;;11.40;99.90;;;;;;4922893;28;87960;-84
2021/05/01 13:57:57;;;;;;;47.78;32.58;;;11.50;99.90;;;;;;4914146;28;88112;-82
2021/05/01 14:00:26;;;;;;;41.13;28.33;;;10.90;99.90;;;;;;4928344;28;87302;-83
2021/05/01 14:02:53;;;;;;;40.35;26.42;;;11.50;99.90;;;;;;4919992;28;87747;-82
2021/05/01 14:05:24;;;;;;;39.50;26.33;;;11.60;99.90;;;;;;4926913;28;86273;-82
2021/05/01 14:07:51;;;;;;;42.80;27.98;;;11.50;99.90;;;;;;4924798;28;86863;-84
2021/05/01 14:10:21;;;;;;;42.90;27.55;;;11.50;99.90;;;;;;4924776;28;86817;-82
2021/05/01 14:12:50;;;;;;;42.45;28.00;;;11.50;99.90;;;;;;4927611;28;88392;-83
2021/05/01 14:15:18;;;;;;;42.10;29.30;;;11.50;99.90;;;;;;4926746;28;87253;-85
2021/05/01 14:17:45;;;;;;;43.67;30.67;;;;;;;;;;4923072;28;86962;-84
2021/05/01 14:20:58;;;;;;;43.55;29.90;;;11.40;99.90;;;;;;4940152;28;86541;-82
2021/05/01 14:23:24;;;;;;;41.65;27.65;;;11.40;99.90;;;;;;4948147;28;87701;-85
2021/05/01 14:25:51;;;;;;;43.65;30.25;;;11.40;99.90;;;;;;4942791;28;86892;-83
2021/05/01 14:28:29;;;;;;;40.53;28.90;;;11.40;99.90;;;;;;4932256;28;87042;-85
2021/05/01 14:33:33;;;;;;;38.93;28.83;;;11.40;99.90;;;;;;4933839;28;88713;-84
2021/05/01 14:36:03;;;;;;;38.78;27.98;;;11.40;99.90;;;;;;4941437;28;88162;-84
2021/05/01 14:38:30;;;;;;;41.40;28.67;;;11.40;99.90;;;;;;4936753;28;87661;-87
2021/05/01 14:40:57;;;;;;;40.90;30.30;;;11.90;99.90;;;;;;4937843;28;87014;-87
2021/05/01 14:43:37;;;;;;;35.00;27.60;;;11.30;99.90;;;;;;4931110;28;87149;-85
2021/05/01 14:46:18;;;;;;;32.67;26.40;;;11.30;99.90;;;;;;4918708;28;87136;-87
2021/05/01 14:49:03;;;;;;;35.70;29.70;;;11.70;99.90;;;;;;4919622;28;87152;-84
2021/05/01 14:51:31;;;;;;;34.15;26.88;;;11.30;99.90;;;;;;4926941;28;86677;-86
2021/05/01 14:54:09;;;;;;;33.40;26.52;;;11.20;99.90;;;;;;4932181;28;86948;-88
2021/05/01 14:56:54;;;;;;;40.40;27.67;;;11.20;99.90;;;;;;4928511;28;86987;-87
2021/05/01 14:59:40;;;;;;;33.67;25.45;;;11.20;99.90;;;;;;4926055;28;86670;-87
2021/05/01 15:02:15;;;;;;;33.70;25.55;;;11.20;99.90;;;;;;4927685;28;86977;-85
2021/05/01 15:05:02;;;;;;;35.17;28.92;;;11.20;99.90;;;;;;4934550;28;88312;-84
2021/05/01 15:07:29;;;;;;;32.35;25.63;;;11.10;99.90;;;;;;4926327;28;88414;-86
2021/05/01 15:09:55;;;;;;;35.35;27.23;;;11.10;99.90;;;;;;4930758;28;86964;-84
2021/05/01 15:12:22;;;;;;;31.33;25.35;;;11.10;99.90;;;;;;4930573;28;86623;-85
2021/05/01 15:14:59;;;;;;;36.70;27.73;;;11.10;99.90;;;;;;4932360;28;86835;-85
2021/05/01 15:17:46;;;;;;;31.85;26.25;;;11.10;99.90;;;;;;4930748;28;87474;-86
2021/05/01 15:20:14;;;;;;;32.75;25.80;;;11.00;99.90;;;;;;4939788;28;86918;-85
2021/05/01 15:22:41;;;;;;;32.05;24.40;;;11.00;99.90;;;;;;4925838;28;86042;-87
2021/05/01 15:25:07;;;;;;;34.28;23.30;;;11.00;99.90;;;;;;4919985;28;89618;-87
2021/05/01 15:27:33;;;;;;;33.92;26.13;;;;;;;;;;4930649;28;86996;-87
2021/05/01 15:30:15;;;;;;;37.88;25.85;;;11.10;99.90;;;;;;4919867;28;87915;-85
2021/05/01 15:32:41;;;;;;;32.58;24.95;;;;;;;;;;4928066;28;87476;-86
2021/05/01 15:35:08;;;;;;;31.52;26.13;;;11.70;99.90;;;;;;4923943;28;89091;-83
2021/05/01 15:37:35;;;;;;;34.97;23.20;;;11.10;99.90;;;;;;4927284;28;90132;-86
2021/05/01 15:40:01;;;;;;;33.13;27.05;;;;;;;;;;4927014;28;87145;-84
2021/05/01 15:42:28;;;;;;;34.85;23.75;;;11.10;99.90;;;;;;4927540;28;86881;-86
2021/05/01 15:44:53;;;;;;;33.17;23.55;;;11.00;99.90;;;;;;4930734;28;87059;-86
2021/05/01 15:47:19;;;;;;;36.22;24.25;;;10.80;99.90;;;;;;4927064;28;86931;-82
2021/05/01 15:49:45;;;;;;;38.80;25.38;;;10.80;99.90;;;;;;4927800;28;86852;-84
2021/05/01 15:52:10;;;;;;;38.33;25.33;;;10.80;99.90;;;;;;4927824;28;87040;-83
2021/05/01 15:54:36;;;;;;;33.33;23.45;;;10.90;99.90;;;;;;4926984;28;88609;-85
2021/05/01 15:57:04;;;;;;;35.25;25.95;;;10.90;99.90;;;;;;4933138;28;88270;-85
2021/05/01 15:59:31;;;;;;;38.17;28.35;;;;;;;;;;4935591;28;86875;-88
2021/05/01 16:01:57;;;;;;;38.30;25.95;;;10.80;99.90;;;;;;4926094;28;86783;-83
2021/05/01 16:04:23;;;;;;;36.15;23.42;;;10.90;99.90;;;;;;4926856;28;87005;-87